Fulmar — WDD3992 — position and weather

sailwx.info

Track history (hours):
 
Tides and Currents Weather Stations Pressure Air Temp Water Temp Dewpoint Dewpoint Depression Visibility Wind Speed Wind Dir Waves Ship Positions

Oceanographic research ship Fulmar (United States)

Owner: NOAA R/V Fulmar, Monterey, CA. More information available from US FCC via Universal Licensing System.

Last reported at 2017-Dec-08 22:43 UTC. Time now 2017-Dec-13 03:41 UTC.
Position N 34°14' W 119°16'.

Length 20 m; draft 2 m.

Type: Ship. MMSI: 367139040.

Date/timePositionNaut miles runAvg speedWind from/ knotsBaromVisibWave heightAir tempDewpointWater temp
2017-Dec-08 22:43N 34°14' W 119°16'0 0.0
2017-Dec-08 01:35N 34°14' W 119°16'0 0.0
2017-Dec-08 01:30N 34°14' W 119°16'1 1.0
2017-Dec-08 00:56N 34°15' W 119°16'717.1
2017-Dec-08 00:30N 34°16' W 119°25'1119.8
2017-Dec-07 23:58N 34°19' W 119°38'919.4
2017-Dec-07 23:29N 34°22' W 119°48'1019.2
2017-Dec-07 22:56N 34°24' W 120°01'715.9
2017-Dec-07 22:30N 34°24' W 120°09'919.2
2017-Dec-07 22:00N 34°23' W 120°21'918.8
2017-Dec-07 21:30N 34°24' W 120°32'918.4
2017-Dec-07 21:00N 34°31' W 120°40'917.7
2017-Dec-07 20:29N 34°40' W 120°43'1019.2
2017-Dec-07 19:59N 34°49' W 120°45'816.2
2017-Dec-07 19:29N 34°57' W 120°47'919.2
2017-Dec-07 19:00N 35°06' W 120°52'5616.9
2017-Dec-07 15:42N 35°50' W 121°34'716.3
2017-Dec-07 15:15N 35°56' W 121°39'416.1
2017-Dec-07 15:00N 35°59' W 121°42'816.7
2017-Dec-07 14:30N 36°06' W 121°48'817.0
2017-Dec-07 14:00N 36°13' W 121°53'816.5
2017-Dec-07 13:30N 36°21' W 121°58'816.9
2017-Dec-07 13:00N 36°29' W 122°00'17 1.1
2017-Dec-06 22:06N 36°46' W 122°02'219.3
2017-Dec-06 22:00N 36°45' W 122°04'917.4
2017-Dec-06 21:30N 36°43' W 122°15'713.4
2017-Dec-06 21:00N 36°42' W 122°23'  
Track history (hours):
 
Tides and Currents Weather Stations Pressure Air Temp Water Temp Dewpoint Dewpoint Depression Visibility Wind Speed Wind Dir Waves Ship Positions

Oceanographic research ship Fulmar (United States)

Owner: NOAA R/V Fulmar, Monterey, CA. More information available from US FCC via Universal Licensing System.

Last reported at 2017-Dec-08 22:43 UTC. Time now 2017-Dec-13 03:41 UTC.
Position N 34°14' W 119°16'.

Length 20 m; draft 2 m.

Type: Ship. MMSI: 367139040.

Date/timePositionNaut miles runAvg speedWind from/ knotsBaromVisibWave heightAir tempDewpointWater temp
2017-Dec-08 22:43N 34°14' W 119°16'0 0.0
2017-Dec-08 01:35N 34°14' W 119°16'0 0.0
2017-Dec-08 01:30N 34°14' W 119°16'1 1.0
2017-Dec-08 00:56N 34°15' W 119°16'717.1
2017-Dec-08 00:30N 34°16' W 119°25'1119.8
2017-Dec-07 23:58N 34°19' W 119°38'919.4
2017-Dec-07 23:29N 34°22' W 119°48'1019.2
2017-Dec-07 22:56N 34°24' W 120°01'715.9
2017-Dec-07 22:30N 34°24' W 120°09'919.2
2017-Dec-07 22:00N 34°23' W 120°21'918.8
2017-Dec-07 21:30N 34°24' W 120°32'918.4
2017-Dec-07 21:00N 34°31' W 120°40'917.7
2017-Dec-07 20:29N 34°40' W 120°43'1019.2
2017-Dec-07 19:59N 34°49' W 120°45'816.2
2017-Dec-07 19:29N 34°57' W 120°47'919.2
2017-Dec-07 19:00N 35°06' W 120°52'5616.9
2017-Dec-07 15:42N 35°50' W 121°34'716.3
2017-Dec-07 15:15N 35°56' W 121°39'416.1
2017-Dec-07 15:00N 35°59' W 121°42'816.7
2017-Dec-07 14:30N 36°06' W 121°48'817.0
2017-Dec-07 14:00N 36°13' W 121°53'816.5
2017-Dec-07 13:30N 36°21' W 121°58'816.9
2017-Dec-07 13:00N 36°29' W 122°00'17 1.1
2017-Dec-06 22:06N 36°46' W 122°02'219.3
2017-Dec-06 22:00N 36°45' W 122°04'917.4
2017-Dec-06 21:30N 36°43' W 122°15'713.4
2017-Dec-06 21:00N 36°42' W 122°23'  

Dump ship's entire track history